Time;durP1;ratioP1;P1;durP2;ratioP2;P2;SDS_P1;SDS_P2;PMS_P1;PMS_P2;Temp;Humidity;BMP_temperature;BMP_pressure;BME280_temperature;BME280_humidity;BME280_pressure;Samples;Min_cycle;Max_cycle;Signal;HPM_P1;HPM_P2
2023/12/31 00:01:40;;;;;;;2.92;1.50;;;;;;;13.07;56.97;99966.72;4213098;28;20074;-57
2023/12/31 00:03:42;;;;;;;3.20;1.83;;;;;;;13.05;56.92;99931.63;4212573;28;20072;-57
2023/12/31 00:05:44;;;;;;;4.32;2.13;;;;;;;13.04;56.48;99938.69;4213004;28;20105;-57
2023/12/31 00:07:45;;;;;;;3.08;1.63;;;;;;;13.04;56.81;99932.59;4212989;28;20052;-57
2023/12/31 00:09:47;;;;;;;3.53;1.60;;;;;;;13.03;56.69;99934.34;4212983;28;20048;-57
2023/12/31 00:11:49;;;;;;;2.63;1.45;;;;;;;13.04;57.05;99922.88;4212918;28;20128;-57
2023/12/31 00:13:50;;;;;;;3.80;1.70;;;;;;;13.03;56.56;99910.59;4212415;28;20044;-57
2023/12/31 00:15:52;;;;;;;3.40;1.77;;;;;;;13.03;56.68;99907.13;4212362;28;20055;-56
2023/12/31 00:17:54;;;;;;;3.70;1.73;;;;;;;13.02;56.58;99902.78;4212958;28;20048;-58
2023/12/31 00:19:56;;;;;;;3.28;1.58;;;;;;;13.02;56.79;99903.63;4212666;28;20044;-57
2023/12/31 00:21:58;;;;;;;3.28;1.73;;;;;;;13.02;56.65;99881.66;4212712;28;20072;-58
2023/12/31 00:23:59;;;;;;;3.75;1.92;;;;;;;13.02;56.56;99877.22;4213079;28;20044;-58
2023/12/31 00:26:04;;;;;;;3.25;1.50;;;;;;;13.00;56.88;99876.50;4212604;28;20468;-58
2023/12/31 00:28:06;;;;;;;3.60;1.50;;;;;;;13.01;56.87;99869.41;4212804;28;20051;-58
2023/12/31 00:30:08;;;;;;;3.45;1.70;;;;;;;13.02;56.51;99876.38;4212845;28;20082;-58
2023/12/31 00:32:10;;;;;;;3.33;1.60;;;;;;;13.01;57.06;99862.31;4215596;28;20051;-58
2023/12/31 00:34:12;;;;;;;3.95;1.80;;;;;;;12.98;56.59;99851.97;4215213;28;20102;-58
2023/12/31 00:36:13;;;;;;;3.10;1.65;;;;;;;12.98;56.82;99853.72;4215702;28;20425;-58
2023/12/31 00:38:15;;;;;;;2.90;1.55;;;;;;;12.99;56.68;99843.13;4215782;28;20560;-58
2023/12/31 00:40:16;;;;;;;3.05;1.58;;;;;;;12.98;56.75;99833.50;4214194;28;20056;-58
2023/12/31 00:42:18;;;;;;;3.85;1.65;;;;;;;12.98;56.80;99844.03;4215574;28;20406;-56
2023/12/31 00:44:20;;;;;;;3.58;1.77;;;;;;;12.99;56.65;99858.06;4215665;28;20048;-57
2023/12/31 00:46:22;;;;;;;4.47;1.90;;;;;;;12.97;56.57;99847.63;4215230;28;20051;-56
2023/12/31 00:48:23;;;;;;;3.55;1.70;;;;;;;12.97;56.75;99842.34;4215359;28;20059;-56
2023/12/31 00:50:25;;;;;;;3.95;1.88;;;;;;;12.97;56.92;99825.66;4215503;28;20404;-57
2023/12/31 00:52:27;;;;;;;3.38;1.60;;;;;;;12.97;56.87;99815.94;4215409;28;20048;-58
2023/12/31 00:54:28;;;;;;;3.30;1.90;;;;;;;12.97;56.92;99820.41;4214317;28;20048;-56
2023/12/31 00:56:30;;;;;;;3.20;1.70;;;;;;;12.96;56.96;99813.41;4215235;28;20067;-57
2023/12/31 00:58:32;;;;;;;4.47;1.92;;;;;;;12.98;57.08;99824.69;4214000;28;20052;-57
2023/12/31 01:00:34;;;;;;;3.25;1.70;;;;;;;12.95;56.71;99812.53;4215230;28;20048;-56
2023/12/31 01:02:35;;;;;;;3.38;1.50;;;;;;;12.96;56.92;99806.31;4214904;28;20115;-56
2023/12/31 01:04:37;;;;;;;3.17;1.80;;;;;;;12.96;57.05;99793.13;4215224;28;20052;-57
2023/12/31 01:06:39;;;;;;;3.55;1.90;;;;;;;12.96;57.04;99803.69;4215210;28;20131;-57
2023/12/31 01:08:41;;;;;;;2.70;1.45;;;;;;;12.96;56.66;99789.66;4214064;28;20052;-57
2023/12/31 01:10:42;;;;;;;3.88;1.65;;;;;;;12.96;56.66;99792.28;4214966;28;20471;-57
2023/12/31 01:12:44;;;;;;;3.83;1.88;;;;;;;12.92;56.61;99768.72;4215148;28;20479;-56
2023/12/31 01:14:45;;;;;;;2.75;1.50;;;;;;;12.93;56.82;99754.59;4214731;28;20040;-56
2023/12/31 01:16:48;;;;;;;3.83;1.60;;;;;;;12.94;57.04;99758.06;4214305;28;20430;-56
2023/12/31 01:18:49;;;;;;;3.47;1.70;;;;;;;12.94;57.01;99760.69;4214751;28;20051;-57
2023/12/31 01:20:51;;;;;;;3.08;1.77;;;;;;;12.92;56.75;99755.53;4214923;28;20052;-57
2023/12/31 01:22:53;;;;;;;3.22;1.80;;;;;;;12.94;56.57;99755.41;4214892;28;20399;-57
2023/12/31 01:24:55;;;;;;;3.10;1.60;;;;;;;12.93;56.97;99751.94;4214617;28;20054;-56
2023/12/31 01:26:57;;;;;;;2.78;1.52;;;;;;;12.92;56.83;99738.84;4214525;28;20039;-57
2023/12/31 01:28:59;;;;;;;4.00;1.70;;;;;;;12.93;56.97;99743.19;4213502;28;20169;-56
2023/12/31 01:31:01;;;;;;;;;;;;;;;12.92;57.02;99726.50;4214919;28;20044;-57
2023/12/31 01:33:03;;;;;;;3.63;1.67;;;;;;;12.89;57.05;99718.78;4214492;28;20576;-57
2023/12/31 01:35:05;;;;;;;3.13;1.58;;;;;;;12.91;57.10;99713.41;4214701;28;20044;-57
2023/12/31 01:37:06;;;;;;;4.13;1.73;;;;;;;12.91;56.95;99718.69;4214659;28;20122;-57
2023/12/31 01:39:08;;;;;;;3.13;1.67;;;;;;;12.90;57.11;99709.94;4214736;28;20041;-56
2023/12/31 01:41:11;;;;;;;3.30;1.60;;;;;;;12.90;56.97;99696.72;4214475;28;20048;-56
2023/12/31 01:43:17;;;;;;;3.38;1.70;;;;;;;12.89;56.80;99681.84;4214443;28;20043;-55
2023/12/31 01:45:18;;;;;;;3.50;1.90;;;;;;;12.89;56.83;99670.41;4214165;28;20120;-57
2023/12/31 01:47:21;;;;;;;4.25;1.88;;;;;;;12.88;56.87;99674.84;4214442;28;20387;-56
2023/12/31 01:49:23;;;;;;;4.00;1.90;;;;;;;12.90;56.73;99683.53;4213092;28;20119;-57
2023/12/31 01:51:26;;;;;;;3.45;1.80;;;;;;;12.89;56.98;99676.56;4214375;28;20425;-57
2023/12/31 01:53:29;;;;;;;3.78;1.92;;;;;;;12.88;56.71;99680.13;4214427;28;20128;-57
2023/12/31 01:55:30;;;;;;;3.25;1.70;;;;;;;12.88;56.68;99672.22;4213340;28;20155;-57
2023/12/31 01:57:35;;;;;;;3.60;2.03;;;;;;;12.89;57.12;99673.06;4214216;28;20048;-57
2023/12/31 01:59:37;;;;;;;3.72;1.70;;;;;;;12.89;57.00;99662.50;4213956;28;20514;-57
2023/12/31 02:01:40;;;;;;;3.47;1.80;;;;;;;12.89;56.84;99675.69;4212655;28;20048;-56
2023/12/31 02:03:42;;;;;;;3.58;1.80;;;;;;;12.87;56.68;99651.22;4214199;28;20490;-57
2023/12/31 02:05:44;;;;;;;3.75;1.70;;;;;;;12.88;56.73;99653.75;4214020;28;20459;-57
2023/12/31 02:07:47;;;;;;;2.60;1.60;;;;;;;12.86;56.70;99631.88;4214087;28;20502;-57
2023/12/31 02:09:50;;;;;;;3.22;1.77;;;;;;;12.88;56.68;99626.50;4213854;28;20140;-57
2023/12/31 02:11:52;;;;;;;2.47;1.60;;;;;;;12.86;57.12;99621.31;4213889;28;20058;-57
2023/12/31 02:13:54;;;;;;;3.00;1.92;;;;;;;12.86;57.04;99618.69;4219636;28;20071;-56
2023/12/31 02:15:55;;;;;;;2.47;1.50;;;;;;;12.84;56.73;99623.19;4230331;28;20122;-58
2023/12/31 02:17:59;;;;;;;2.50;1.50;;;;;;;12.87;57.06;99628.28;4230541;28;20047;-55
2023/12/31 02:20:02;;;;;;;3.20;1.70;;;;;;;12.87;56.76;99614.28;4230718;28;20426;-57
2023/12/31 02:22:07;;;;;;;3.22;1.60;;;;;;;12.87;56.75;99620.38;4230842;28;20047;-57
2023/12/31 02:24:13;;;;;;;3.53;1.80;;;;;;;12.87;56.74;99601.91;4230854;28;20075;-57
2023/12/31 02:26:14;;;;;;;3.25;1.73;;;;;;;12.86;56.57;99596.72;4230682;28;20044;-57
2023/12/31 02:28:16;;;;;;;3.10;1.65;;;;;;;12.84;56.88;99583.63;4230588;28;20048;-59
2023/12/31 02:30:19;;;;;;;3.67;1.90;;;;;;;12.86;56.71;99554.50;4230384;28;20047;-57
2023/12/31 02:32:20;;;;;;;2.88;1.80;;;;;;;12.86;56.93;99559.78;4229465;28;20156;-58
2023/12/31 02:34:23;;;;;;;3.40;1.75;;;;;;;12.85;56.62;99566.84;4230723;28;20090;-58
2023/12/31 02:36:24;;;;;;;3.45;1.65;;;;;;;12.83;56.74;99581.09;4230722;28;20052;-57
2023/12/31 02:38:26;;;;;;;3.30;1.80;;;;;;;12.86;56.89;99567.72;4230867;28;20079;-57
2023/12/31 02:40:28;;;;;;;2.85;1.42;;;;;;;12.86;56.66;99565.91;4230741;28;20051;-62
2023/12/31 02:42:29;;;;;;;3.00;1.67;;;;;;;12.84;57.24;99570.44;4230399;28;20071;-57
2023/12/31 02:44:33;;;;;;;2.75;1.70;;;;;;;12.84;56.71;99556.41;4230075;28;20052;-54
2023/12/31 02:46:34;;;;;;;3.47;1.83;;;;;;;12.84;57.01;99556.41;4230200;28;20043;-58
2023/12/31 02:48:36;;;;;;;3.03;1.70;;;;;;;12.84;57.09;99556.41;4230276;28;20057;-55
2023/12/31 02:50:38;;;;;;;2.35;1.50;;;;;;;12.81;56.54;99546.88;4230369;28;20083;-57
2023/12/31 02:52:40;;;;;;;3.72;1.95;;;;;;;12.83;56.66;99562.63;4230420;28;20480;-57
2023/12/31 02:54:42;;;;;;;3.10;1.75;;;;;;;12.83;56.58;99554.69;4229745;28;20139;-56
2023/12/31 02:56:44;;;;;;;2.90;1.50;;;;;;;12.81;56.93;99561.84;4228997;28;20077;-57
2023/12/31 02:58:46;;;;;;;2.50;1.50;;;;;;;12.82;57.01;99559.13;4230005;28;20051;-58
2023/12/31 03:00:48;;;;;;;3.10;1.70;;;;;;;12.82;56.95;99561.78;4220103;27;20051;-58
2023/12/31 03:02:50;;;;;;;3.63;1.70;;;;;;;12.83;57.08;99544.16;4213535;28;20044;-58
2023/12/31 03:04:51;;;;;;;3.38;1.60;;;;;;;12.83;56.70;99542.38;4213374;28;20040;-59
2023/12/31 03:06:53;;;;;;;3.03;1.52;;;;;;;12.83;56.69;99549.41;4212235;28;20052;-57
2023/12/31 03:08:58;;;;;;;3.30;1.65;;;;;;;12.83;56.96;99538.88;4213320;28;20067;-58
2023/12/31 03:11:00;;;;;;;3.85;1.70;;;;;;;12.84;56.65;99540.56;4213243;28;20123;-57
2023/12/31 03:13:03;;;;;;;2.97;1.80;;;;;;;12.83;57.00;99545.00;4213129;28;20044;-60
2023/12/31 03:15:06;;;;;;;3.47;1.48;;;;;;;12.83;56.66;99541.50;4213146;28;20080;-57
2023/12/31 03:17:07;;;;;;;;;;;;;;;12.82;57.04;99530.13;4213402;28;20055;-56
2023/12/31 03:19:09;;;;;;;3.53;1.70;;;;;;;12.80;56.81;99537.28;4211958;28;20006;-56
2023/12/31 03:21:15;;;;;;;3.20;1.75;;;;;;;12.82;56.66;99524.84;4213289;28;20418;-56
2023/12/31 03:23:17;;;;;;;2.95;1.60;;;;;;;12.83;56.55;99517.75;4212110;28;20113;-57
2023/12/31 03:25:19;;;;;;;3.20;1.52;;;;;;;12.83;56.82;99491.38;4213326;28;20124;-56
2023/12/31 03:27:20;;;;;;;3.15;1.65;;;;;;;12.81;56.49;99486.22;4212910;28;20119;-58
2023/12/31 03:29:22;;;;;;;3.47;1.70;;;;;;;12.83;56.66;99486.09;4213148;28;20052;-56
2023/12/31 03:31:24;;;;;;;2.85;1.50;;;;;;;12.83;56.63;99484.31;4213148;28;20063;-56
2023/12/31 03:33:26;;;;;;;2.85;1.60;;;;;;;12.82;56.55;99469.44;4213264;28;20445;-56
2023/12/31 03:35:28;;;;;;;3.10;1.70;;;;;;;12.81;56.73;99466.88;4213177;28;20188;-56
2023/12/31 03:37:30;;;;;;;2.65;1.50;;;;;;;12.82;56.45;99458.88;4213238;28;20040;-56
2023/12/31 03:39:31;;;;;;;;;;;;;;;12.83;56.65;99441.25;4213694;28;20056;-55
2023/12/31 03:41:33;;;;;;;2.20;1.40;;;;;;;12.81;56.78;99461.59;4212807;28;20209;-58
2023/12/31 03:43:35;;;;;;;;;;;;;;;12.80;56.88;99458.13;4213679;28;20464;-58
2023/12/31 03:45:37;;;;;;;2.28;1.40;;;;;;;12.77;56.84;99451.25;4213166;28;19974;-57
2023/12/31 03:47:39;;;;;;;2.80;1.42;;;;;;;12.81;56.71;99443.13;4212987;28;20126;-57
2023/12/31 03:49:40;;;;;;;2.90;1.48;;;;;;;12.81;56.81;99438.72;4212924;28;20070;-57
2023/12/31 03:51:42;;;;;;;3.33;1.67;;;;;;;12.82;56.50;99448.31;4212844;28;20051;-58
2023/12/31 03:53:44;;;;;;;2.55;1.58;;;;;;;12.82;56.63;99445.69;4212818;28;20067;-57
2023/12/31 03:55:46;;;;;;;2.65;1.42;;;;;;;12.83;56.46;99435.97;4212470;28;20505;-57
2023/12/31 03:57:47;;;;;;;2.85;1.50;;;;;;;12.82;56.77;99442.19;4212989;28;20474;-57
2023/12/31 03:59:49;;;;;;;3.15;1.40;;;;;;;12.81;56.49;99457.19;4214487;28;20051;-57
2023/12/31 04:01:56;;;;;;;2.95;1.40;;;;;;;12.81;56.53;99429.94;4229979;28;20400;-57
2023/12/31 04:03:58;;;;;;;2.92;1.50;;;;;;;12.82;56.55;99432.50;4229847;28;20044;-57
2023/12/31 04:06:00;;;;;;;2.83;1.40;;;;;;;12.81;56.87;99428.16;4230444;28;20100;-57
2023/12/31 04:08:02;;;;;;;2.63;1.50;;;;;;;12.82;56.42;99431.63;4233017;28;20494;-57
2023/12/31 04:10:04;;;;;;;3.17;1.60;;;;;;;12.81;56.79;99430.81;4233052;28;20417;-57
2023/12/31 04:12:06;;;;;;;3.08;1.50;;;;;;;12.82;56.65;99442.19;4232539;28;20047;-57
2023/12/31 04:14:10;;;;;;;3.17;1.50;;;;;;;12.81;56.75;99441.34;4224767;27;20464;-56
2023/12/31 04:16:12;;;;;;;3.47;1.58;;;;;;;12.80;56.94;99444.94;4214579;28;20048;-57
2023/12/31 04:18:14;;;;;;;2.63;1.33;;;;;;;12.80;56.90;99450.22;4215957;28;20528;-56
2023/12/31 04:20:15;;;;;;;3.13;1.42;;;;;;;12.82;56.48;99456.25;4216114;28;20059;-55
2023/12/31 04:22:23;;;;;;;2.60;1.48;;;;;;;12.80;56.80;99426.47;4215881;28;20044;-57
2023/12/31 04:24:25;;;;;;;2.83;1.40;;;;;;;12.81;56.56;99419.38;4215817;28;20142;-57
2023/12/31 04:26:27;;;;;;;3.10;1.48;;;;;;;12.80;56.89;99401.88;4215279;28;20044;-58
2023/12/31 04:28:29;;;;;;;2.92;1.50;;;;;;;12.81;56.97;99374.53;4215560;28;20076;-58
2023/12/31 04:30:31;;;;;;;2.88;1.48;;;;;;;12.79;57.07;99382.56;4215766;28;20048;-58
2023/12/31 04:32:33;;;;;;;2.70;1.40;;;;;;;12.77;56.93;99369.47;4215788;28;20040;-57
2023/12/31 04:34:34;;;;;;;2.47;1.33;;;;;;;12.77;57.10;99373.88;4215629;28;20056;-58
2023/12/31 04:36:36;;;;;;;3.92;1.58;;;;;;;12.77;57.07;99390.56;4215641;28;20482;-57
2023/12/31 04:38:38;;;;;;;2.72;1.40;;;;;;;12.76;57.01;99380.97;4215667;28;20122;-56
2023/12/31 04:40:39;;;;;;;2.42;1.40;;;;;;;12.77;56.87;99390.56;4215171;28;20044;-57
2023/12/31 04:42:41;;;;;;;2.63;1.40;;;;;;;12.77;57.11;99400.28;4215593;28;20145;-57
2023/12/31 04:44:44;;;;;;;2.97;1.40;;;;;;;12.77;56.90;99402.91;4215565;28;20043;-56
2023/12/31 04:46:45;;;;;;;2.33;1.23;;;;;;;12.75;57.20;99394.28;4215348;28;20055;-55
2023/12/31 04:48:48;;;;;;;2.75;1.30;;;;;;;12.76;57.14;99393.31;4215307;28;20052;-57
2023/12/31 04:50:50;;;;;;;3.10;1.60;;;;;;;12.77;57.29;99406.41;4215363;28;20055;-57
2023/12/31 04:52:51;;;;;;;2.25;1.15;;;;;;;12.77;57.15;99392.34;4215124;28;20125;-57
2023/12/31 04:54:53;;;;;;;2.45;1.40;;;;;;;12.76;57.16;99406.50;4215081;28;20048;-56
2023/12/31 04:56:55;;;;;;;2.00;1.30;;;;;;;12.76;56.71;99404.72;4214259;28;20087;-56
2023/12/31 04:58:57;;;;;;;2.65;1.10;;;;;;;12.76;57.07;99407.34;4215224;28;20518;-57
2023/12/31 05:00:59;;;;;;;;;;;;;;;12.76;57.13;99411.78;4215454;28;20556;-57
2023/12/31 05:03:01;;;;;;;1.83;1.10;;;;;;;12.73;56.95;99417.25;4215512;28;19920;-57
2023/12/31 05:05:04;;;;;;;2.08;1.10;;;;;;;12.73;56.82;99415.44;4215319;28;20080;-57
2023/12/31 05:07:11;;;;;;;2.45;1.05;;;;;;;12.73;57.23;99415.44;4215143;28;20489;-57
2023/12/31 05:09:13;;;;;;;2.00;1.20;;;;;;;12.72;57.08;99413.78;4214562;28;20063;-56
2023/12/31 05:11:15;;;;;;;1.63;1.00;;;;;;;12.72;56.74;99416.44;4215143;28;20078;-56
2023/12/31 05:13:16;;;;;;;2.03;1.02;;;;;;;12.72;57.14;99413.78;4215620;28;20044;-55
2023/12/31 05:15:18;;;;;;;2.08;1.20;;;;;;;12.74;56.86;99422.44;4231916;28;20167;-56
2023/12/31 05:17:19;;;;;;;2.90;1.13;;;;;;;12.73;57.14;99419.91;4231187;28;20054;-56
2023/12/31 05:19:21;;;;;;;2.33;1.20;;;;;;;12.73;57.28;99404.91;4232010;28;20051;-57
2023/12/31 05:21:23;;;;;;;3.20;1.02;;;;;;;12.73;57.20;99414.63;4231887;28;20051;-56
2023/12/31 05:23:25;;;;;;;2.97;1.02;;;;;;;12.71;56.89;99398.91;4231426;28;20425;-57
2023/12/31 05:25:26;;;;;;;2.60;1.10;;;;;;;12.71;56.77;99403.31;4231584;28;20079;-57
2023/12/31 05:27:28;;;;;;;2.65;0.90;;;;;;;12.71;56.73;99403.31;4231729;28;20113;-56
2023/12/31 05:29:29;;;;;;;3.47;1.10;;;;;;;12.72;56.80;99405.00;4230171;28;20460;-57
2023/12/31 05:31:31;;;;;;;2.63;1.00;;;;;;;12.73;56.96;99398.78;4231693;28;20056;-57
2023/12/31 05:33:34;;;;;;;2.22;1.02;;;;;;;12.70;57.03;99402.47;4231502;27;20048;-58
2023/12/31 05:35:35;;;;;;;;;;;;;;;12.71;56.81;99400.69;4231881;28;20116;-57
2023/12/31 05:37:37;;;;;;;2.65;0.90;;;;;;;12.69;56.87;99400.78;4231232;28;19926;-57
2023/12/31 05:39:39;;;;;;;1.75;0.70;;;;;;;12.69;57.14;99384.97;4231640;28;20044;-57
2023/12/31 05:41:40;;;;;;;2.47;0.90;;;;;;;12.71;57.15;99392.75;4231285;28;20047;-57
2023/12/31 05:43:42;;;;;;;1.40;0.68;;;;;;;12.69;57.04;99378.84;4231631;28;20047;-57
2023/12/31 05:45:44;;;;;;;1.83;0.90;;;;;;;12.70;57.04;99370.00;4231385;28;20051;-57
2023/12/31 05:47:46;;;;;;;1.88;0.80;;;;;;;12.69;56.76;99363.84;4231401;28;20563;-58
2023/12/31 05:49:48;;;;;;;;;;;;;;;12.68;56.93;99361.31;4231894;27;20135;-57
2023/12/31 05:51:50;;;;;;;2.30;0.80;;;;;;;12.67;57.03;99355.19;4231152;28;19935;-57
2023/12/31 05:53:51;;;;;;;1.80;0.80;;;;;;;12.66;56.86;99352.66;4231150;28;20055;-57
2023/12/31 05:55:53;;;;;;;3.22;0.80;;;;;;;12.67;56.78;99357.81;4231060;28;20040;-56
2023/12/31 05:57:55;;;;;;;3.67;1.02;;;;;;;12.67;56.98;99335.88;4231281;28;20052;-57
2023/12/31 05:59:59;;;;;;;2.83;0.77;;;;;;;12.67;56.78;99336.72;4228118;28;20058;-57
2023/12/31 06:02:01;;;;;;;2.35;0.80;;;;;;;12.67;56.60;99346.44;4214281;28;20126;-57
2023/12/31 06:04:03;;;;;;;2.85;0.90;;;;;;;12.66;56.80;99350.88;4214182;28;20082;-57
2023/12/31 06:06:05;;;;;;;2.28;0.80;;;;;;;12.67;56.99;99360.47;4214330;28;20055;-57
2023/12/31 06:08:06;;;;;;;2.50;0.70;;;;;;;12.65;56.60;99367.66;4213955;28;20052;-54
2023/12/31 06:10:08;;;;;;;3.20;0.80;;;;;;;12.63;56.72;99375.66;4214070;28;20090;-56
2023/12/31 06:12:10;;;;;;;2.17;0.70;;;;;;;12.62;57.05;99379.25;4213977;28;20101;-57
2023/12/31 06:14:12;;;;;;;2.25;0.63;;;;;;;12.65;57.08;99378.19;4221266;28;20141;-57
2023/12/31 06:16:14;;;;;;;2.70;0.93;;;;;;;12.64;56.87;99389.69;4230675;27;20052;-53
2023/12/31 06:18:16;;;;;;;1.80;0.57;;;;;;;12.63;56.43;99396.75;4230654;28;20052;-55
2023/12/31 06:20:18;;;;;;;2.92;0.80;;;;;;;12.62;56.86;99388.94;4231121;28;20068;-54
2023/12/31 06:22:19;;;;;;;3.60;0.80;;;;;;;12.62;56.84;99388.94;4230677;28;20109;-55
2023/12/31 06:24:21;;;;;;;2.22;0.68;;;;;;;12.61;56.46;99388.09;4230745;28;20414;-55
2023/12/31 06:26:23;;;;;;;3.25;0.70;;;;;;;12.62;56.76;99405.63;4230482;28;20355;-56
2023/12/31 06:28:24;;;;;;;3.00;0.82;;;;;;;12.62;56.31;99416.19;4228330;28;20052;-56
2023/12/31 06:30:26;;;;;;;2.40;0.60;;;;;;;12.61;56.75;99401.28;4230684;28;20043;-56
2023/12/31 06:32:28;;;;;;;2.08;0.68;;;;;;;12.62;56.64;99418.81;4230427;28;20494;-54
2023/12/31 06:34:30;;;;;;;2.15;0.50;;;;;;;12.62;56.55;99421.47;4230730;28;20124;-57
2023/12/31 06:36:32;;;;;;;2.35;0.57;;;;;;;12.60;56.66;99427.75;4230271;28;20051;-56
2023/12/31 06:38:34;;;;;;;;;;;;;;;12.60;56.40;99441.81;4231090;28;20391;-56
2023/12/31 06:40:39;;;;;;;2.60;0.93;;;;;;;12.56;56.28;99428.91;4229663;28;19920;-57
2023/12/31 06:42:40;;;;;;;1.45;0.40;;;;;;;12.60;56.53;99439.16;4230169;28;20051;-56
2023/12/31 06:44:42;;;;;;;1.85;0.73;;;;;;;12.60;56.69;99435.66;4230542;28;20131;-57
2023/12/31 06:46:44;;;;;;;2.47;0.50;;;;;;;12.58;56.56;99425.22;4230474;28;20047;-56
2023/12/31 06:48:46;;;;;;;3.05;0.65;;;;;;;12.57;56.51;99444.63;4230537;28;20547;-57
2023/12/31 06:50:47;;;;;;;2.95;0.80;;;;;;;12.57;56.53;99436.72;4230104;28;20057;-56
2023/12/31 06:52:54;;;;;;;1.63;0.52;;;;;;;12.57;56.06;99441.97;4230102;28;20062;-57
2023/12/31 06:55:01;;;;;;;2.15;0.60;;;;;;;12.58;56.54;99454.22;4229975;28;20134;-57
2023/12/31 06:57:03;;;;;;;2.60;0.50;;;;;;;12.58;56.39;99450.75;4230467;28;20525;-57
2023/12/31 06:59:08;;;;;;;3.00;0.60;;;;;;;12.57;56.03;99457.81;4230262;28;20489;-57
2023/12/31 07:01:10;;;;;;;2.97;0.50;;;;;;;12.58;56.33;99453.41;4216949;28;20052;-57
2023/12/31 07:03:11;;;;;;;2.15;0.57;;;;;;;12.58;56.34;99477.97;4213463;28;20161;-57
2023/12/31 07:05:18;;;;;;;2.03;0.50;;;;;;;12.56;55.92;99474.56;4212790;28;20075;-57
2023/12/31 07:07:19;;;;;;;2.53;0.38;;;;;;;12.57;55.86;99491.25;4213254;28;20069;-57
2023/12/31 07:09:28;;;;;;;2.50;0.60;;;;;;;12.56;55.85;99493.03;4213116;28;20052;-57
2023/12/31 07:11:29;;;;;;;2.70;0.57;;;;;;;12.55;56.21;99494.00;4213190;28;20052;-58
2023/12/31 07:13:31;;;;;;;3.22;0.70;;;;;;;12.57;56.00;99509.72;4215626;28;20085;-58
2023/12/31 07:15:34;;;;;;;3.50;0.82;;;;;;;12.56;55.98;99511.50;4230300;28;20572;-58
2023/12/31 07:17:36;;;;;;;2.15;0.57;;;;;;;12.54;56.01;99500.22;4229517;28;20077;-57
2023/12/31 07:19:38;;;;;;;1.35;0.50;;;;;;;12.55;56.08;99517.75;4229932;28;20055;-57
2023/12/31 07:21:40;;;;;;;3.15;0.50;;;;;;;12.54;56.20;99523.97;4228900;28;20039;-58
2023/12/31 07:23:42;;;;;;;2.30;0.50;;;;;;;12.54;56.14;99531.00;4229961;28;20048;-57
2023/12/31 07:25:44;;;;;;;2.75;0.60;;;;;;;12.47;55.95;99525.28;4228745;28;20501;-57
2023/12/31 07:27:46;;;;;;;3.53;0.68;;;;;;;12.55;56.06;99537.97;4230075;28;20056;-58
2023/12/31 07:29:47;;;;;;;2.65;0.50;;;;;;;12.52;56.14;99525.00;4230062;28;20074;-58
2023/12/31 07:31:54;;;;;;;3.30;0.60;;;;;;;12.52;56.38;99532.91;4230009;28;20043;-57
2023/12/31 07:34:00;;;;;;;3.28;0.60;;;;;;;12.53;56.03;99537.25;4229420;28;20040;-58
2023/12/31 07:36:03;;;;;;;1.85;0.40;;;;;;;12.50;55.95;99538.25;4229875;28;20073;-58
2023/12/31 07:38:07;;;;;;;;;;;;;;;12.51;56.09;99541.75;4230121;28;20127;-58
2023/12/31 07:40:10;;;;;;;2.58;0.52;;;;;;;12.50;56.27;99540.91;4231099;28;20381;-57
2023/12/31 07:42:17;;;;;;;2.17;0.60;;;;;;;12.49;55.84;99552.41;4233476;28;20071;-58
2023/12/31 07:44:23;;;;;;;1.08;0.43;;;;;;;12.52;56.00;99560.13;4233284;27;20117;-58
2023/12/31 07:46:30;;;;;;;2.25;0.50;;;;;;;12.52;55.73;99575.94;4233313;28;20052;-58
2023/12/31 07:48:32;;;;;;;2.50;0.60;;;;;;;12.53;55.74;99592.63;4232831;28;20047;-57
2023/12/31 07:50:34;;;;;;;2.38;0.50;;;;;;;12.52;56.09;99604.13;4233488;28;20047;-57
2023/12/31 07:52:36;;;;;;;3.42;0.75;;;;;;;12.52;55.96;99604.13;4233351;28;20051;-57
2023/12/31 07:54:38;;;;;;;1.40;0.40;;;;;;;12.50;55.87;99606.81;4233285;28;20065;-57
2023/12/31 07:56:44;;;;;;;1.42;0.43;;;;;;;12.51;55.97;99608.53;4233236;28;20482;-57
2023/12/31 07:58:55;;;;;;;2.28;0.70;;;;;;;12.50;55.97;99620.00;4233399;28;20062;-55
2023/12/31 08:00:58;;;;;;;2.20;0.50;;;;;;;12.52;55.57;99628.69;4233003;27;20072;-56
2023/12/31 08:03:00;;;;;;;2.60;0.55;;;;;;;12.49;55.77;99625.38;4232649;28;20418;-56
2023/12/31 08:05:03;;;;;;;;;;;;;;;12.50;55.73;99641.09;4233583;28;20074;-57
2023/12/31 08:07:05;;;;;;;1.83;0.50;;;;;;;12.48;55.99;99652.69;4231649;28;20032;-57
2023/12/31 08:09:10;;;;;;;2.20;0.70;;;;;;;12.51;55.81;99648.09;4232746;28;20047;-57
2023/12/31 08:11:12;;;;;;;3.45;0.70;;;;;;;12.49;55.94;99642.06;4232783;28;20608;-57
2023/12/31 08:13:14;;;;;;;2.60;0.70;;;;;;;12.52;55.42;99665.59;4232775;28;20071;-57
2023/12/31 08:15:16;;;;;;;1.58;0.40;;;;;;;12.49;55.45;99665.81;4215860;28;20046;-57
2023/12/31 08:17:17;;;;;;;3.65;0.70;;;;;;;12.48;55.84;99664.13;4215311;28;20056;-57
2023/12/31 08:19:19;;;;;;;3.00;0.60;;;;;;;12.51;55.96;99671.81;4214595;28;20050;-56
2023/12/31 08:21:22;;;;;;;3.20;0.70;;;;;;;12.51;55.67;99669.19;4215894;28;20048;-56
2023/12/31 08:23:23;;;;;;;3.20;0.75;;;;;;;12.49;55.81;99659.66;4215857;28;20438;-57
2023/12/31 08:25:25;;;;;;;3.42;0.70;;;;;;;12.51;55.58;99674.47;4214466;28;20048;-57
2023/12/31 08:27:27;;;;;;;3.92;0.60;;;;;;;12.50;55.54;99674.56;4215606;28;20495;-57
2023/12/31 08:29:28;;;;;;;4.22;0.80;;;;;;;12.48;55.62;99676.44;4215565;28;20047;-56
2023/12/31 08:31:30;;;;;;;2.53;0.77;;;;;;;12.50;55.59;99675.41;4215414;28;20126;-57
2023/12/31 08:33:36;;;;;;;2.05;0.50;;;;;;;12.50;55.60;99682.47;4215648;28;20068;-57
2023/12/31 08:35:42;;;;;;;2.38;0.70;;;;;;;12.50;55.72;99680.66;4214203;28;20055;-55
2023/12/31 08:37:44;;;;;;;3.05;0.60;;;;;;;12.51;55.53;99711.38;4215612;28;20051;-57
2023/12/31 08:39:46;;;;;;;2.42;0.50;;;;;;;12.50;55.39;99687.75;4215495;28;20123;-56
2023/12/31 08:41:47;;;;;;;3.50;0.63;;;;;;;12.49;55.41;99694.81;4215473;28;20127;-57
2023/12/31 08:43:50;;;;;;;2.67;0.50;;;;;;;12.49;55.37;99702.75;4215627;28;20522;-57
2023/12/31 08:45:51;;;;;;;3.95;0.90;;;;;;;12.51;55.75;99711.38;4215091;28;20048;-57
2023/12/31 08:47:53;;;;;;;3.38;0.70;;;;;;;12.49;55.60;99705.38;4215570;28;20127;-56
2023/12/31 08:49:55;;;;;;;3.38;0.80;;;;;;;12.48;55.74;99716.84;4215450;28;20059;-57
2023/12/31 08:51:56;;;;;;;2.92;0.60;;;;;;;12.52;55.35;99726.28;4213086;28;20052;-57
2023/12/31 08:53:58;;;;;;;1.75;0.57;;;;;;;12.49;55.16;99731.75;4215147;28;20052;-57
2023/12/31 08:56:05;;;;;;;3.78;0.80;;;;;;;12.52;55.66;99726.28;4215170;28;20064;-57
2023/12/31 08:58:12;;;;;;;3.42;0.70;;;;;;;12.51;55.23;99724.56;4215143;28;20051;-57
2023/12/31 09:00:19;;;;;;;3.38;0.80;;;;;;;12.53;55.58;99719.22;4214584;28;20048;-57
2023/12/31 09:02:20;;;;;;;3.63;0.60;;;;;;;12.52;55.41;99723.63;4215194;28;20097;-57
2023/12/31 09:04:22;;;;;;;3.38;0.70;;;;;;;12.50;55.10;99729.94;4215146;28;20116;-57
2023/12/31 09:06:24;;;;;;;4.85;0.77;;;;;;;12.52;55.30;99736.81;4214890;28;20040;-57
2023/12/31 09:08:26;;;;;;;3.42;0.80;;;;;;;12.53;55.41;99729.78;4214878;28;20040;-58
2023/12/31 09:10:33;;;;;;;3.70;0.70;;;;;;;12.53;55.03;99722.69;4214848;28;20422;-57
2023/12/31 09:12:35;;;;;;;2.60;0.70;;;;;;;12.54;55.05;99731.44;4214987;28;20040;-57
2023/12/31 09:14:36;;;;;;;3.33;0.90;;;;;;;12.52;55.01;99725.44;4214972;28;20108;-57
2023/12/31 09:16:38;;;;;;;3.78;0.80;;;;;;;12.54;55.13;99750.78;4214531;28;20490;-57
2023/12/31 09:18:40;;;;;;;3.13;0.73;;;;;;;12.54;54.99;99748.13;4215098;28;20093;-57
2023/12/31 09:20:41;;;;;;;3.88;0.80;;;;;;;12.57;55.25;99760.28;4213612;28;20127;-57
2023/12/31 09:22:43;;;;;;;3.53;0.80;;;;;;;12.58;54.75;99762.00;4214890;28;20075;-57
2023/12/31 09:24:48;;;;;;;4.43;1.08;;;;;;;12.58;54.71;99764.63;4214814;28;20048;-57
2023/12/31 09:26:50;;;;;;;5.30;1.02;;;;;;;12.58;54.78;99756.72;4214863;28;20048;-57
2023/12/31 09:28:52;;;;;;;5.07;0.85;;;;;;;12.58;55.30;99767.25;4214700;28;20040;-58
2023/12/31 09:30:53;;;;;;;4.57;1.13;;;;;;;12.60;55.02;99778.56;4214539;28;20044;-57
2023/12/31 09:32:55;;;;;;;6.25;0.93;;;;;;;12.59;55.29;99761.88;4214802;28;20503;-58
2023/12/31 09:34:57;;;;;;;4.78;0.90;;;;;;;12.59;55.04;99767.16;4214660;28;20048;-55
2023/12/31 09:36:58;;;;;;;4.63;0.98;;;;;;;12.61;55.09;99782.88;4214424;28;20052;-57
2023/12/31 09:39:00;;;;;;;3.92;1.00;;;;;;;12.60;55.27;99765.38;4214436;28;20044;-58